sensor_id;sensor_type;location;lat;lon;timestamp;temperature;humidity
66726;HTU21D;53638;51.062;5.804;2022-09-12T00:01:27;15.42;118.99
66726;HTU21D;53638;51.062;5.804;2022-09-12T00:03:55;15.39;118.99
66726;HTU21D;53638;51.062;5.804;2022-09-12T00:06:26;15.33;118.99
66726;HTU21D;53638;51.062;5.804;2022-09-12T00:08:55;15.29;118.99
66726;HTU21D;53638;51.062;5.804;2022-09-12T00:11:21;15.26;118.99
66726;HTU21D;53638;51.062;5.804;2022-09-12T00:13:47;15.21;118.99
66726;HTU21D;53638;51.062;5.804;2022-09-12T00:16:17;15.18;118.99
66726;HTU21D;53638;51.062;5.804;2022-09-12T00:18:44;15.16;118.99
66726;HTU21D;53638;51.062;5.804;2022-09-12T00:21:11;15.13;118.99
66726;HTU21D;53638;51.062;5.804;2022-09-12T00:23:37;15.11;118.99
66726;HTU21D;53638;51.062;5.804;2022-09-12T00:26:05;15.08;118.99
66726;HTU21D;53638;51.062;5.804;2022-09-12T00:28:34;15.04;118.99
66726;HTU21D;53638;51.062;5.804;2022-09-12T00:31:03;14.99;118.99
66726;HTU21D;53638;51.062;5.804;2022-09-12T00:33:29;14.96;118.99
66726;HTU21D;53638;51.062;5.804;2022-09-12T00:35:55;14.93;118.99
66726;HTU21D;53638;51.062;5.804;2022-09-12T00:38:21;14.93;118.99
66726;HTU21D;53638;51.062;5.804;2022-09-12T00:40:47;14.93;118.99
66726;HTU21D;53638;51.062;5.804;2022-09-12T00:43:35;14.92;118.99
66726;HTU21D;53638;51.062;5.804;2022-09-12T00:46:23;14.93;118.99
66726;HTU21D;53638;51.062;5.804;2022-09-12T00:48:59;14.92;118.99
66726;HTU21D;53638;51.062;5.804;2022-09-12T00:51:28;14.89;118.99
66726;HTU21D;53638;51.062;5.804;2022-09-12T00:53:57;14.88;118.99
66726;HTU21D;53638;51.062;5.804;2022-09-12T00:56:26;14.85;118.99
66726;HTU21D;53638;51.062;5.804;2022-09-12T00:59:00;14.82;118.99
66726;HTU21D;53638;51.062;5.804;2022-09-12T01:01:27;14.79;118.99
66726;HTU21D;53638;51.062;5.804;2022-09-12T01:03:53;14.75;118.99
66726;HTU21D;53638;51.062;5.804;2022-09-12T01:06:27;14.71;118.99
66726;HTU21D;53638;51.062;5.804;2022-09-12T01:08:55;14.70;118.99
66726;HTU21D;53638;51.062;5.804;2022-09-12T01:11:22;14.68;118.99
66726;HTU21D;53638;51.062;5.804;2022-09-12T01:13:49;14.67;118.99
66726;HTU21D;53638;51.062;5.804;2022-09-12T01:16:15;14.62;118.99
66726;HTU21D;53638;51.062;5.804;2022-09-12T01:19:01;14.60;118.99
66726;HTU21D;53638;51.062;5.804;2022-09-12T01:21:44;14.57;118.99
66726;HTU21D;53638;51.062;5.804;2022-09-12T01:24:32;14.53;118.99
66726;HTU21D;53638;51.062;5.804;2022-09-12T01:30:03;14.48;118.99
66726;HTU21D;53638;51.062;5.804;2022-09-12T01:35:19;14.47;118.99
66726;HTU21D;53638;51.062;5.804;2022-09-12T01:38:01;14.43;118.99
66726;HTU21D;53638;51.062;5.804;2022-09-12T01:43:21;14.41;118.99
66726;HTU21D;53638;51.062;5.804;2022-09-12T01:46:00;14.40;118.99
66726;HTU21D;53638;51.062;5.804;2022-09-12T01:48:35;14.40;118.99
66726;HTU21D;53638;51.062;5.804;2022-09-12T01:51:24;14.39;118.99
66726;HTU21D;53638;51.062;5.804;2022-09-12T01:54:00;14.39;118.99
66726;HTU21D;53638;51.062;5.804;2022-09-12T01:56:34;14.37;118.99
66726;HTU21D;53638;51.062;5.804;2022-09-12T01:59:14;14.36;118.99
66726;HTU21D;53638;51.062;5.804;2022-09-12T02:01:49;14.35;118.99
66726;HTU21D;53638;51.062;5.804;2022-09-12T02:04:25;14.35;118.99
66726;HTU21D;53638;51.062;5.804;2022-09-12T02:06:58;14.33;118.99
66726;HTU21D;53638;51.062;5.804;2022-09-12T02:09:35;14.28;118.99
66726;HTU21D;53638;51.062;5.804;2022-09-12T02:12:05;14.26;118.99
66726;HTU21D;53638;51.062;5.804;2022-09-12T02:14:39;14.24;118.99
66726;HTU21D;53638;51.062;5.804;2022-09-12T02:17:11;14.24;118.99
66726;HTU21D;53638;51.062;5.804;2022-09-12T02:19:45;14.22;118.99
66726;HTU21D;53638;51.062;5.804;2022-09-12T02:22:16;14.21;118.99
66726;HTU21D;53638;51.062;5.804;2022-09-12T02:24:47;14.18;118.99
66726;HTU21D;53638;51.062;5.804;2022-09-12T02:27:25;14.14;118.99
66726;HTU21D;53638;51.062;5.804;2022-09-12T02:29:52;14.14;118.99
66726;HTU21D;53638;51.062;5.804;2022-09-12T02:32:29;14.10;118.99
66726;HTU21D;53638;51.062;5.804;2022-09-12T02:35:05;14.08;118.99
66726;HTU21D;53638;51.062;5.804;2022-09-12T02:37:51;14.05;118.99
66726;HTU21D;53638;51.062;5.804;2022-09-12T02:40:21;14.01;118.99
66726;HTU21D;53638;51.062;5.804;2022-09-12T02:42:48;13.99;118.99
66726;HTU21D;53638;51.062;5.804;2022-09-12T02:45:15;13.98;118.99
66726;HTU21D;53638;51.062;5.804;2022-09-12T02:47:50;13.95;118.99
66726;HTU21D;53638;51.062;5.804;2022-09-12T02:50:18;13.95;118.99
66726;HTU21D;53638;51.062;5.804;2022-09-12T02:52:45;13.93;118.99
66726;HTU21D;53638;51.062;5.804;2022-09-12T02:55:13;13.89;118.99
66726;HTU21D;53638;51.062;5.804;2022-09-12T02:57:39;13.89;118.99
66726;HTU21D;53638;51.062;5.804;2022-09-12T03:00:06;13.90;118.99
66726;HTU21D;53638;51.062;5.804;2022-09-12T03:05:21;13.84;118.99
66726;HTU21D;53638;51.062;5.804;2022-09-12T03:08:03;13.82;118.99
66726;HTU21D;53638;51.062;5.804;2022-09-12T03:10:50;13.80;118.99
66726;HTU21D;53638;51.062;5.804;2022-09-12T03:16:03;13.79;118.99
66726;HTU21D;53638;51.062;5.804;2022-09-12T03:19:02;13.79;118.99
66726;HTU21D;53638;51.062;5.804;2022-09-12T03:29:12;13.77;118.99
66726;HTU21D;53638;51.062;5.804;2022-09-12T03:31:54;13.75;118.99
66726;HTU21D;53638;51.062;5.804;2022-09-12T03:34:22;13.73;118.99
66726;HTU21D;53638;51.062;5.804;2022-09-12T03:36:48;13.73;118.99
66726;HTU21D;53638;51.062;5.804;2022-09-12T03:39:15;13.73;118.99
66726;HTU21D;53638;51.062;5.804;2022-09-12T03:41:41;13.73;118.99
66726;HTU21D;53638;51.062;5.804;2022-09-12T03:44:08;13.73;118.99
66726;HTU21D;53638;51.062;5.804;2022-09-12T03:46:34;13.70;118.99
66726;HTU21D;53638;51.062;5.804;2022-09-12T03:49:00;13.70;118.99
66726;HTU21D;53638;51.062;5.804;2022-09-12T03:51:27;13.68;118.99
66726;HTU21D;53638;51.062;5.804;2022-09-12T03:53:53;13.67;118.99
66726;HTU21D;53638;51.062;5.804;2022-09-12T03:56:19;13.66;118.99
66726;HTU21D;53638;51.062;5.804;2022-09-12T03:58:46;13.65;118.99
66726;HTU21D;53638;51.062;5.804;2022-09-12T04:01:15;13.62;118.99
66726;HTU21D;53638;51.062;5.804;2022-09-12T04:03:43;13.60;118.99
66726;HTU21D;53638;51.062;5.804;2022-09-12T04:06:11;13.56;118.99
66726;HTU21D;53638;51.062;5.804;2022-09-12T04:08:38;13.55;118.99
66726;HTU21D;53638;51.062;5.804;2022-09-12T04:11:09;13.53;118.99
66726;HTU21D;53638;51.062;5.804;2022-09-12T04:13:37;13.52;118.99
66726;HTU21D;53638;51.062;5.804;2022-09-12T04:16:04;13.51;118.99
66726;HTU21D;53638;51.062;5.804;2022-09-12T04:18:30;13.49;118.99
66726;HTU21D;53638;51.062;5.804;2022-09-12T04:20:56;13.49;118.99
66726;HTU21D;53638;51.062;5.804;2022-09-12T04:23:23;13.49;118.99
66726;HTU21D;53638;51.062;5.804;2022-09-12T04:25:54;13.47;118.99
66726;HTU21D;53638;51.062;5.804;2022-09-12T04:28:20;13.45;118.99
66726;HTU21D;53638;51.062;5.804;2022-09-12T04:30:46;13.43;118.99
66726;HTU21D;53638;51.062;5.804;2022-09-12T04:33:13;13.38;118.99
66726;HTU21D;53638;51.062;5.804;2022-09-12T04:35:39;13.38;118.99
66726;HTU21D;53638;51.062;5.804;2022-09-12T04:38:06;13.36;118.99
66726;HTU21D;53638;51.062;5.804;2022-09-12T04:40:32;13.35;118.99
66726;HTU21D;53638;51.062;5.804;2022-09-12T04:42:58;13.33;118.99
66726;HTU21D;53638;51.062;5.804;2022-09-12T04:45:24;13.30;118.99
66726;HTU21D;53638;51.062;5.804;2022-09-12T04:47:50;13.31;118.99
66726;HTU21D;53638;51.062;5.804;2022-09-12T04:50:16;13.29;118.99
66726;HTU21D;53638;51.062;5.804;2022-09-12T04:52:42;13.30;118.99
66726;HTU21D;53638;51.062;5.804;2022-09-12T04:55:08;13.29;118.99
66726;HTU21D;53638;51.062;5.804;2022-09-12T04:57:35;13.31;118.99
66726;HTU21D;53638;51.062;5.804;2022-09-12T05:00:02;13.29;118.99
66726;HTU21D;53638;51.062;5.804;2022-09-12T05:02:32;13.30;118.99
66726;HTU21D;53638;51.062;5.804;2022-09-12T05:04:58;13.30;118.99
66726;HTU21D;53638;51.062;5.804;2022-09-12T05:07:24;13.27;118.99
66726;HTU21D;53638;51.062;5.804;2022-09-12T05:09:49;13.29;118.99
66726;HTU21D;53638;51.062;5.804;2022-09-12T05:12:15;13.26;118.99
66726;HTU21D;53638;51.062;5.804;2022-09-12T05:14:41;13.27;118.99
66726;HTU21D;53638;51.062;5.804;2022-09-12T05:17:07;13.29;118.99
66726;HTU21D;53638;51.062;5.804;2022-09-12T05:19:33;13.29;118.99
66726;HTU21D;53638;51.062;5.804;2022-09-12T05:21:59;13.30;118.99
66726;HTU21D;53638;51.062;5.804;2022-09-12T05:24:25;13.32;118.99
66726;HTU21D;53638;51.062;5.804;2022-09-12T05:26:51;13.34;118.99
66726;HTU21D;53638;51.062;5.804;2022-09-12T05:29:17;13.36;118.99
66726;HTU21D;53638;51.062;5.804;2022-09-12T05:31:43;13.36;118.99
66726;HTU21D;53638;51.062;5.804;2022-09-12T05:34:09;13.38;118.99
66726;HTU21D;53638;51.062;5.804;2022-09-12T05:36:36;13.40;118.99
66726;HTU21D;53638;51.062;5.804;2022-09-12T05:39:02;13.43;118.99
66726;HTU21D;53638;51.062;5.804;2022-09-12T05:41:30;13.46;118.99
66726;HTU21D;53638;51.062;5.804;2022-09-12T05:43:59;13.47;118.99
66726;HTU21D;53638;51.062;5.804;2022-09-12T05:46:28;13.51;118.99
66726;HTU21D;53638;51.062;5.804;2022-09-12T05:48:54;13.58;118.99
66726;HTU21D;53638;51.062;5.804;2022-09-12T05:51:23;13.60;118.99
66726;HTU21D;53638;51.062;5.804;2022-09-12T05:53:53;13.65;118.99
66726;HTU21D;53638;51.062;5.804;2022-09-12T05:56:22;13.67;118.99
66726;HTU21D;53638;51.062;5.804;2022-09-12T05:58:57;13.73;118.99
66726;HTU21D;53638;51.062;5.804;2022-09-12T06:01:23;13.78;118.99
66726;HTU21D;53638;51.062;5.804;2022-09-12T06:03:52;13.82;118.99
66726;HTU21D;53638;51.062;5.804;2022-09-12T06:06:21;13.89;118.99
66726;HTU21D;53638;51.062;5.804;2022-09-12T06:08:49;13.94;118.99
66726;HTU21D;53638;51.062;5.804;2022-09-12T06:11:18;13.98;118.99
66726;HTU21D;53638;51.062;5.804;2022-09-12T06:13:45;14.05;118.99
66726;HTU21D;53638;51.062;5.804;2022-09-12T06:16:14;14.12;118.99
66726;HTU21D;53638;51.062;5.804;2022-09-12T06:18:45;14.17;118.99
66726;HTU21D;53638;51.062;5.804;2022-09-12T06:21:12;14.22;118.99
66726;HTU21D;53638;51.062;5.804;2022-09-12T06:23:39;14.28;118.99
66726;HTU21D;53638;51.062;5.804;2022-09-12T06:26:08;14.35;118.99
66726;HTU21D;53638;51.062;5.804;2022-09-12T06:28:37;14.42;118.99
66726;HTU21D;53638;51.062;5.804;2022-09-12T06:31:11;14.48;118.99
66726;HTU21D;53638;51.062;5.804;2022-09-12T06:33:39;14.52;118.99
66726;HTU21D;53638;51.062;5.804;2022-09-12T06:36:09;14.59;118.99
66726;HTU21D;53638;51.062;5.804;2022-09-12T06:38:35;14.64;118.99
66726;HTU21D;53638;51.062;5.804;2022-09-12T06:41:04;14.74;118.99
66726;HTU21D;53638;51.062;5.804;2022-09-12T06:43:32;14.84;118.99
66726;HTU21D;53638;51.062;5.804;2022-09-12T06:45:59;14.91;118.99
66726;HTU21D;53638;51.062;5.804;2022-09-12T06:48:24;14.99;118.99
66726;HTU21D;53638;51.062;5.804;2022-09-12T06:53:23;15.15;118.99
66726;HTU21D;53638;51.062;5.804;2022-09-12T06:55:56;15.23;118.99
66726;HTU21D;53638;51.062;5.804;2022-09-12T06:58:23;15.23;118.99
66726;HTU21D;53638;51.062;5.804;2022-09-12T07:00:49;15.27;118.99
66726;HTU21D;53638;51.062;5.804;2022-09-12T07:03:14;15.36;118.99
66726;HTU21D;53638;51.062;5.804;2022-09-12T07:05:40;15.43;118.99
66726;HTU21D;53638;51.062;5.804;2022-09-12T07:08:06;15.53;118.99
66726;HTU21D;53638;51.062;5.804;2022-09-12T07:10:32;15.61;118.99
66726;HTU21D;53638;51.062;5.804;2022-09-12T07:17:22;15.84;118.99
66726;HTU21D;53638;51.062;5.804;2022-09-12T07:19:54;15.93;118.99
66726;HTU21D;53638;51.062;5.804;2022-09-12T07:26:51;16.10;118.99
66726;HTU21D;53638;51.062;5.804;2022-09-12T07:50:59;16.31;118.99
66726;HTU21D;53638;51.062;5.804;2022-09-12T07:53:31;16.43;118.99
66726;HTU21D;53638;51.062;5.804;2022-09-12T07:55:58;16.52;118.99
66726;HTU21D;53638;51.062;5.804;2022-09-12T07:58:24;16.61;118.99
66726;HTU21D;53638;51.062;5.804;2022-09-12T08:00:50;16.70;118.99
66726;HTU21D;53638;51.062;5.804;2022-09-12T08:03:17;16.77;118.99
66726;HTU21D;53638;51.062;5.804;2022-09-12T08:05:43;16.82;118.99
66726;HTU21D;53638;51.062;5.804;2022-09-12T08:08:09;16.86;118.99
66726;HTU21D;53638;51.062;5.804;2022-09-12T08:10:35;16.90;118.99
66726;HTU21D;53638;51.062;5.804;2022-09-12T08:13:01;16.94;118.99
66726;HTU21D;53638;51.062;5.804;2022-09-12T08:15:28;16.95;118.99
66726;HTU21D;53638;51.062;5.804;2022-09-12T08:17:55;16.99;118.99
66726;HTU21D;53638;51.062;5.804;2022-09-12T08:20:21;17.04;118.99
66726;HTU21D;53638;51.062;5.804;2022-09-12T08:22:47;17.13;118.99
66726;HTU21D;53638;51.062;5.804;2022-09-12T08:25:13;17.20;118.99
66726;HTU21D;53638;51.062;5.804;2022-09-12T08:27:41;17.30;118.99
66726;HTU21D;53638;51.062;5.804;2022-09-12T08:30:07;17.46;118.99
66726;HTU21D;53638;51.062;5.804;2022-09-12T08:32:34;17.56;118.99
66726;HTU21D;53638;51.062;5.804;2022-09-12T08:35:00;17.65;118.99
66726;HTU21D;53638;51.062;5.804;2022-09-12T08:37:29;17.75;118.99
66726;HTU21D;53638;51.062;5.804;2022-09-12T08:39:56;17.81;118.99
66726;HTU21D;53638;51.062;5.804;2022-09-12T08:42:37;17.88;118.99
66726;HTU21D;53638;51.062;5.804;2022-09-12T08:45:25;17.93;118.99
66726;HTU21D;53638;51.062;5.804;2022-09-12T08:47:55;18.05;118.99
66726;HTU21D;53638;51.062;5.804;2022-09-12T08:50:21;18.09;118.99
66726;HTU21D;53638;51.062;5.804;2022-09-12T08:55:29;18.09;118.99
66726;HTU21D;53638;51.062;5.804;2022-09-12T08:57:58;18.09;118.99
66726;HTU21D;53638;51.062;5.804;2022-09-12T10:52:22;31.66;106.85
66726;HTU21D;53638;51.062;5.804;2022-09-12T11:22:30;36.91;79.15
66726;HTU21D;53638;51.062;5.804;2022-09-12T11:50:52;38.88;68.78
66726;HTU21D;53638;51.062;5.804;2022-09-12T11:53:58;38.35;70.59
66726;HTU21D;53638;51.062;5.804;2022-09-12T11:56:59;38.84;68.93
66726;HTU21D;53638;51.062;5.804;2022-09-12T12:14:50;38.90;67.10
66726;HTU21D;53638;51.062;5.804;2022-09-12T12:25:25;37.16;69.60
66726;HTU21D;53638;51.062;5.804;2022-09-12T12:28:02;37.20;70.24
66726;HTU21D;53638;51.062;5.804;2022-09-12T12:36:41;38.49;68.10
66726;HTU21D;53638;51.062;5.804;2022-09-12T12:39:57;38.99;68.39
66726;HTU21D;53638;51.062;5.804;2022-09-12T13:21:24;38.48;64.34
66726;HTU21D;53638;51.062;5.804;2022-09-12T15:16:30;39.71;52.20
66726;HTU21D;53638;51.062;5.804;2022-09-12T15:18:56;40.01;51.17
66726;HTU21D;53638;51.062;5.804;2022-09-12T15:21:22;40.18;51.69
66726;HTU21D;53638;51.062;5.804;2022-09-12T15:23:49;40.00;51.66
66726;HTU21D;53638;51.062;5.804;2022-09-12T15:26:20;39.85;52.13
66726;HTU21D;53638;51.062;5.804;2022-09-12T15:28:48;40.50;51.61
66726;HTU21D;53638;51.062;5.804;2022-09-12T15:31:23;40.93;50.50
66726;HTU21D;53638;51.062;5.804;2022-09-12T15:33:49;41.26;50.68
66726;HTU21D;53638;51.062;5.804;2022-09-12T15:36:18;41.60;49.85
66726;HTU21D;53638;51.062;5.804;2022-09-12T15:38:45;41.31;49.12
66726;HTU21D;53638;51.062;5.804;2022-09-12T15:41:31;41.09;50.69
66726;HTU21D;53638;51.062;5.804;2022-09-12T15:43:58;41.29;50.44
66726;HTU21D;53638;51.062;5.804;2022-09-12T15:46:24;41.26;49.98
66726;HTU21D;53638;51.062;5.804;2022-09-12T15:48:50;40.91;49.72
66726;HTU21D;53638;51.062;5.804;2022-09-12T15:51:18;40.42;50.39
66726;HTU21D;53638;51.062;5.804;2022-09-12T15:53:51;40.71;50.37
66726;HTU21D;53638;51.062;5.804;2022-09-12T15:56:19;40.87;49.89
66726;HTU21D;53638;51.062;5.804;2022-09-12T15:58:45;41.19;48.94
66726;HTU21D;53638;51.062;5.804;2022-09-12T16:01:13;41.24;49.03
66726;HTU21D;53638;51.062;5.804;2022-09-12T16:03:40;41.19;48.65
66726;HTU21D;53638;51.062;5.804;2022-09-12T16:06:06;41.16;48.73
66726;HTU21D;53638;51.062;5.804;2022-09-12T16:08:34;40.80;49.31
66726;HTU21D;53638;51.062;5.804;2022-09-12T16:11:05;40.47;49.50
66726;HTU21D;53638;51.062;5.804;2022-09-12T16:13:32;40.27;50.47
66726;HTU21D;53638;51.062;5.804;2022-09-12T16:15:59;39.98;50.66
66726;HTU21D;53638;51.062;5.804;2022-09-12T16:18:26;40.17;50.21
66726;HTU21D;53638;51.062;5.804;2022-09-12T16:20:54;40.24;50.49
66726;HTU21D;53638;51.062;5.804;2022-09-12T16:23:20;40.58;50.36
66726;HTU21D;53638;51.062;5.804;2022-09-12T16:25:56;41.25;49.27
66726;HTU21D;53638;51.062;5.804;2022-09-12T16:28:22;41.71;48.97
66726;HTU21D;53638;51.062;5.804;2022-09-12T16:30:55;41.62;48.76
66726;HTU21D;53638;51.062;5.804;2022-09-12T16:33:22;41.75;48.48
66726;HTU21D;53638;51.062;5.804;2022-09-12T16:35:47;41.70;48.79
66726;HTU21D;53638;51.062;5.804;2022-09-12T16:38:13;41.49;48.98
66726;HTU21D;53638;51.062;5.804;2022-09-12T16:40:39;41.39;49.05
66726;HTU21D;53638;51.062;5.804;2022-09-12T16:43:05;41.32;48.52
66726;HTU21D;53638;51.062;5.804;2022-09-12T16:45:31;40.99;49.05
66726;HTU21D;53638;51.062;5.804;2022-09-12T16:47:57;40.90;48.78
66726;HTU21D;53638;51.062;5.804;2022-09-12T16:50:23;40.90;49.35
66726;HTU21D;53638;51.062;5.804;2022-09-12T16:52:49;40.54;50.01
66726;HTU21D;53638;51.062;5.804;2022-09-12T16:55:15;40.38;50.19
66726;HTU21D;53638;51.062;5.804;2022-09-12T16:57:41;40.18;50.20
66726;HTU21D;53638;51.062;5.804;2022-09-12T17:00:07;39.87;49.64
66726;HTU21D;53638;51.062;5.804;2022-09-12T17:02:33;39.62;49.66
66726;HTU21D;53638;51.062;5.804;2022-09-12T17:04:59;39.44;50.43
66726;HTU21D;53638;51.062;5.804;2022-09-12T17:07:25;39.15;50.38
66726;HTU21D;53638;51.062;5.804;2022-09-12T17:09:51;38.22;52.14
66726;HTU21D;53638;51.062;5.804;2022-09-12T17:12:17;36.91;55.38
66726;HTU21D;53638;51.062;5.804;2022-09-12T17:14:43;35.98;57.89
66726;HTU21D;53638;51.062;5.804;2022-09-12T17:17:09;35.57;58.59
66726;HTU21D;53638;51.062;5.804;2022-09-12T17:19:37;35.12;60.58
66726;HTU21D;53638;51.062;5.804;2022-09-12T17:22:06;34.26;63.66
66726;HTU21D;53638;51.062;5.804;2022-09-12T17:24:33;33.60;63.73
66726;HTU21D;53638;51.062;5.804;2022-09-12T17:26:59;33.29;63.20
66726;HTU21D;53638;51.062;5.804;2022-09-12T17:29:25;33.21;64.01
66726;HTU21D;53638;51.062;5.804;2022-09-12T17:31:52;33.08;64.27
66726;HTU21D;53638;51.062;5.804;2022-09-12T17:34:19;32.77;65.01
66726;HTU21D;53638;51.062;5.804;2022-09-12T17:36:46;32.32;66.66
66726;HTU21D;53638;51.062;5.804;2022-09-12T17:39:13;31.87;69.14
66726;HTU21D;53638;51.062;5.804;2022-09-12T17:41:41;31.42;70.95
66726;HTU21D;53638;51.062;5.804;2022-09-12T17:44:10;31.05;69.84
66726;HTU21D;53638;51.062;5.804;2022-09-12T17:46:38;30.77;70.57
66726;HTU21D;53638;51.062;5.804;2022-09-12T17:49:06;30.56;70.63
66726;HTU21D;53638;51.062;5.804;2022-09-12T17:51:35;30.31;73.55
66726;HTU21D;53638;51.062;5.804;2022-09-12T17:54:02;30.05;74.29
66726;HTU21D;53638;51.062;5.804;2022-09-12T17:56:30;29.86;77.25
66726;HTU21D;53638;51.062;5.804;2022-09-12T17:58:58;29.65;79.88
66726;HTU21D;53638;51.062;5.804;2022-09-12T18:01:25;29.47;80.79
66726;HTU21D;53638;51.062;5.804;2022-09-12T18:04:10;29.32;79.32
66726;HTU21D;53638;51.062;5.804;2022-09-12T18:06:37;29.14;80.35
66726;HTU21D;53638;51.062;5.804;2022-09-12T18:09:07;29.00;79.56
66726;HTU21D;53638;51.062;5.804;2022-09-12T18:12:09;28.74;82.69
66726;HTU21D;53638;51.062;5.804;2022-09-12T18:14:36;28.43;80.48
66726;HTU21D;53638;51.062;5.804;2022-09-12T18:17:03;28.18;83.04
66726;HTU21D;53638;51.062;5.804;2022-09-12T18:19:31;28.05;82.81
66726;HTU21D;53638;51.062;5.804;2022-09-12T18:21:57;27.89;83.59
66726;HTU21D;53638;51.062;5.804;2022-09-12T18:24:24;27.82;84.19
66726;HTU21D;53638;51.062;5.804;2022-09-12T18:26:50;27.64;85.78
66726;HTU21D;53638;51.062;5.804;2022-09-12T18:29:16;27.40;85.96
66726;HTU21D;53638;51.062;5.804;2022-09-12T18:31:43;27.17;87.95
66726;HTU21D;53638;51.062;5.804;2022-09-12T18:34:10;27.04;90.31
66726;HTU21D;53638;51.062;5.804;2022-09-12T18:36:40;26.94;91.10
66726;HTU21D;53638;51.062;5.804;2022-09-12T18:39:06;26.81;92.88
66726;HTU21D;53638;51.062;5.804;2022-09-12T18:41:32;26.77;92.59
66726;HTU21D;53638;51.062;5.804;2022-09-12T18:44:00;26.68;92.36
66726;HTU21D;53638;51.062;5.804;2022-09-12T18:46:27;26.61;92.54
66726;HTU21D;53638;51.062;5.804;2022-09-12T18:48:55;26.48;93.01
66726;HTU21D;53638;51.062;5.804;2022-09-12T18:51:25;26.33;93.95
66726;HTU21D;53638;51.062;5.804;2022-09-12T18:54:27;26.19;95.36
66726;HTU21D;53638;51.062;5.804;2022-09-12T18:56:53;26.04;95.82
66726;HTU21D;53638;51.062;5.804;2022-09-12T18:59:19;25.81;97.78
66726;HTU21D;53638;51.062;5.804;2022-09-12T19:01:45;25.65;100.14
66726;HTU21D;53638;51.062;5.804;2022-09-12T19:04:12;25.57;103.00
66726;HTU21D;53638;51.062;5.804;2022-09-12T19:06:42;25.51;109.27
66726;HTU21D;53638;51.062;5.804;2022-09-12T19:09:09;25.24;112.96
66726;HTU21D;53638;51.062;5.804;2022-09-12T19:11:38;24.84;112.71
66726;HTU21D;53638;51.062;5.804;2022-09-12T19:14:05;24.51;112.06
66726;HTU21D;53638;51.062;5.804;2022-09-12T19:16:33;24.41;114.53
66726;HTU21D;53638;51.062;5.804;2022-09-12T19:18:59;24.31;116.70
66726;HTU21D;53638;51.062;5.804;2022-09-12T19:21:29;24.26;116.63
66726;HTU21D;53638;51.062;5.804;2022-09-12T19:23:58;24.25;117.15
66726;HTU21D;53638;51.062;5.804;2022-09-12T19:26:35;24.17;118.39
66726;HTU21D;53638;51.062;5.804;2022-09-12T19:29:02;24.06;118.99
66726;HTU21D;53638;51.062;5.804;2022-09-12T19:31:32;24.05;118.99
66726;HTU21D;53638;51.062;5.804;2022-09-12T19:34:00;24.08;118.99
66726;HTU21D;53638;51.062;5.804;2022-09-12T19:36:27;24.08;118.99
66726;HTU21D;53638;51.062;5.804;2022-09-12T19:38:53;24.00;118.99
66726;HTU21D;53638;51.062;5.804;2022-09-12T19:41:19;23.94;118.99
66726;HTU21D;53638;51.062;5.804;2022-09-12T19:43:46;23.88;118.99
66726;HTU21D;53638;51.062;5.804;2022-09-12T19:46:30;23.81;118.99
66726;HTU21D;53638;51.062;5.804;2022-09-12T19:48:56;23.74;118.99
66726;HTU21D;53638;51.062;5.804;2022-09-12T19:51:22;23.68;118.99
66726;HTU21D;53638;51.062;5.804;2022-09-12T19:53:50;23.59;118.99
66726;HTU21D;53638;51.062;5.804;2022-09-12T19:56:16;23.55;118.99
66726;HTU21D;53638;51.062;5.804;2022-09-12T19:58:44;23.47;118.99
66726;HTU21D;53638;51.062;5.804;2022-09-12T20:03:40;23.15;118.99
66726;HTU21D;53638;51.062;5.804;2022-09-12T20:06:10;23.09;118.99
66726;HTU21D;53638;51.062;5.804;2022-09-12T20:08:37;23.09;118.99
66726;HTU21D;53638;51.062;5.804;2022-09-12T20:11:06;23.07;118.99
66726;HTU21D;53638;51.062;5.804;2022-09-12T20:13:32;23.05;118.99
66726;HTU21D;53638;51.062;5.804;2022-09-12T20:16:17;23.02;118.99
66726;HTU21D;53638;51.062;5.804;2022-09-12T20:18:44;22.99;118.99
66726;HTU21D;53638;51.062;5.804;2022-09-12T20:21:15;22.94;118.99
66726;HTU21D;53638;51.062;5.804;2022-09-12T20:23:42;22.86;118.99
66726;HTU21D;53638;51.062;5.804;2022-09-12T20:26:09;22.82;118.99
66726;HTU21D;53638;51.062;5.804;2022-09-12T20:28:37;22.77;118.99
66726;HTU21D;53638;51.062;5.804;2022-09-12T20:31:05;22.73;118.99
66726;HTU21D;53638;51.062;5.804;2022-09-12T20:33:38;22.72;118.99
66726;HTU21D;53638;51.062;5.804;2022-09-12T20:36:24;22.65;118.99
66726;HTU21D;53638;51.062;5.804;2022-09-12T20:39:01;22.51;118.99
66726;HTU21D;53638;51.062;5.804;2022-09-12T20:41:30;22.36;118.99
66726;HTU21D;53638;51.062;5.804;2022-09-12T20:43:56;22.14;118.99
66726;HTU21D;53638;51.062;5.804;2022-09-12T20:46:24;21.96;118.99
66726;HTU21D;53638;51.062;5.804;2022-09-12T20:48:50;21.85;118.99
66726;HTU21D;53638;51.062;5.804;2022-09-12T20:51:18;21.78;118.99
66726;HTU21D;53638;51.062;5.804;2022-09-12T20:53:44;21.73;118.99
66726;HTU21D;53638;51.062;5.804;2022-09-12T20:56:10;21.67;118.99
66726;HTU21D;53638;51.062;5.804;2022-09-12T20:58:36;21.63;118.99
66726;HTU21D;53638;51.062;5.804;2022-09-12T21:01:08;21.59;118.99
66726;HTU21D;53638;51.062;5.804;2022-09-12T21:03:37;21.38;118.99
66726;HTU21D;53638;51.062;5.804;2022-09-12T21:06:04;21.33;118.99
66726;HTU21D;53638;51.062;5.804;2022-09-12T21:08:31;21.31;118.99
66726;HTU21D;53638;51.062;5.804;2022-09-12T21:10:57;21.16;118.99
66726;HTU21D;53638;51.062;5.804;2022-09-12T21:13:23;21.05;118.99
66726;HTU21D;53638;51.062;5.804;2022-09-12T21:16:00;21.03;118.99
66726;HTU21D;53638;51.062;5.804;2022-09-12T21:18:27;21.04;118.99
66726;HTU21D;53638;51.062;5.804;2022-09-12T21:20:54;21.01;118.99
66726;HTU21D;53638;51.062;5.804;2022-09-12T21:23:21;20.99;118.99
66726;HTU21D;53638;51.062;5.804;2022-09-12T21:25:48;20.90;118.99
66726;HTU21D;53638;51.062;5.804;2022-09-12T21:28:17;20.80;118.99
66726;HTU21D;53638;51.062;5.804;2022-09-12T21:31:08;20.71;118.99
66726;HTU21D;53638;51.062;5.804;2022-09-12T21:33:36;20.62;118.99
66726;HTU21D;53638;51.062;5.804;2022-09-12T21:36:27;20.58;118.99
66726;HTU21D;53638;51.062;5.804;2022-09-12T21:38:56;20.51;118.99
66726;HTU21D;53638;51.062;5.804;2022-09-12T21:41:22;20.42;118.99
66726;HTU21D;53638;51.062;5.804;2022-09-12T21:43:48;20.42;118.99
66726;HTU21D;53638;51.062;5.804;2022-09-12T21:46:14;20.33;118.99
66726;HTU21D;53638;51.062;5.804;2022-09-12T21:48:41;20.31;118.99
66726;HTU21D;53638;51.062;5.804;2022-09-12T21:51:07;20.28;118.99
66726;HTU21D;53638;51.062;5.804;2022-09-12T21:53:46;20.24;118.99
66726;HTU21D;53638;51.062;5.804;2022-09-12T21:56:38;20.20;118.99
66726;HTU21D;53638;51.062;5.804;2022-09-12T21:59:04;20.19;118.99
66726;HTU21D;53638;51.062;5.804;2022-09-12T22:01:30;20.10;118.99
66726;HTU21D;53638;51.062;5.804;2022-09-12T22:03:56;20.02;118.99
66726;HTU21D;53638;51.062;5.804;2022-09-12T22:06:22;19.94;118.99